sensor_id;sensor_type;location;lat;lon;timestamp;pressure;altitude;pressure_sealevel;temperature;humidity
49065;BME280;34877;27.062;-82.386;2022-12-20T02:38:34;102244.65;;;12.82;89.24
49065;BME280;34877;27.062;-82.386;2022-12-20T02:48:45;102248.99;;;13.76;80.61
49065;BME280;34877;27.062;-82.386;2022-12-20T02:59:04;102248.27;;;13.88;79.73
49065;BME280;34877;27.062;-82.386;2022-12-20T03:09:12;102253.02;;;13.65;80.01
49065;BME280;34877;27.062;-82.386;2022-12-20T03:19:20;102265.31;;;13.83;79.40
49065;BME280;34877;27.062;-82.386;2022-12-20T03:29:27;102247.41;;;13.73;79.60
49065;BME280;34877;27.062;-82.386;2022-12-20T03:39:32;102255.86;;;13.76;84.23
49065;BME280;34877;27.062;-82.386;2022-12-20T03:49:37;102249.96;;;13.55;81.78
49065;BME280;34877;27.062;-82.386;2022-12-20T03:59:41;102246.38;;;13.54;82.10
49065;BME280;34877;27.062;-82.386;2022-12-20T04:09:47;102240.53;;;13.62;82.36
49065;BME280;34877;27.062;-82.386;2022-12-20T04:20:03;102230.85;;;13.78;82.47
49065;BME280;34877;27.062;-82.386;2022-12-20T04:30:13;102211.59;;;13.32;82.61
49065;BME280;34877;27.062;-82.386;2022-12-20T04:40:18;102202.80;;;13.60;82.22
49065;BME280;34877;27.062;-82.386;2022-12-20T04:50:22;102185.46;;;12.72;83.97
49065;BME280;34877;27.062;-82.386;2022-12-20T05:00:27;102188.72;;;13.61;83.11
49065;BME280;34877;27.062;-82.386;2022-12-20T05:10:32;102175.60;;;13.70;82.73
49065;BME280;34877;27.062;-82.386;2022-12-20T05:20:36;102181.30;;;12.96;82.64
49065;BME280;34877;27.062;-82.386;2022-12-20T05:30:47;102184.40;;;13.21;83.47
49065;BME280;34877;27.062;-82.386;2022-12-20T05:40:52;102173.33;;;13.41;82.75
49065;BME280;34877;27.062;-82.386;2022-12-20T05:50:59;102218.19;;;12.97;83.19
49065;BME280;34877;27.062;-82.386;2022-12-20T06:01:04;102215.19;;;13.63;83.43
49065;BME280;34877;27.062;-82.386;2022-12-20T06:11:07;102191.79;;;12.83;83.71
49065;BME280;34877;27.062;-82.386;2022-12-20T06:21:12;102193.62;;;13.22;82.98
49065;BME280;34877;27.062;-82.386;2022-12-20T06:31:17;102202.36;;;13.03;83.52
49065;BME280;34877;27.062;-82.386;2022-12-20T06:41:22;102186.99;;;12.92;84.00
49065;BME280;34877;27.062;-82.386;2022-12-20T06:51:27;102178.78;;;13.33;84.09
49065;BME280;34877;27.062;-82.386;2022-12-20T07:01:32;102205.07;;;13.00;83.33
49065;BME280;34877;27.062;-82.386;2022-12-20T07:11:38;102183.51;;;13.02;83.19
49065;BME280;34877;27.062;-82.386;2022-12-20T07:21:42;102163.53;;;13.07;83.71
49065;BME280;34877;27.062;-82.386;2022-12-20T07:31:47;102178.54;;;12.91;83.31
49065;BME280;34877;27.062;-82.386;2022-12-20T07:41:54;102167.78;;;13.32;83.45
49065;BME280;34877;27.062;-82.386;2022-12-20T07:51:59;102199.75;;;12.82;83.65
49065;BME280;34877;27.062;-82.386;2022-12-20T08:02:08;102210.30;;;13.15;83.90
49065;BME280;34877;27.062;-82.386;2022-12-20T08:12:14;102201.65;;;13.28;84.19
49065;BME280;34877;27.062;-82.386;2022-12-20T08:22:18;102177.11;;;13.00;83.64
49065;BME280;34877;27.062;-82.386;2022-12-20T08:32:22;102184.38;;;13.23;83.54
49065;BME280;34877;27.062;-82.386;2022-12-20T08:42:28;102192.99;;;13.12;83.67
49065;BME280;34877;27.062;-82.386;2022-12-20T08:52:33;102202.97;;;12.93;83.43
49065;BME280;34877;27.062;-82.386;2022-12-20T09:02:38;102202.43;;;13.06;83.63
49065;BME280;34877;27.062;-82.386;2022-12-20T09:12:42;102197.45;;;12.40;83.57
49065;BME280;34877;27.062;-82.386;2022-12-20T09:22:47;102180.56;;;12.86;84.36
49065;BME280;34877;27.062;-82.386;2022-12-20T09:32:53;102165.44;;;12.79;84.60
49065;BME280;34877;27.062;-82.386;2022-12-20T09:42:56;102175.14;;;12.75;83.72
49065;BME280;34877;27.062;-82.386;2022-12-20T09:53:18;102202.65;;;13.14;83.66
49065;BME280;34877;27.062;-82.386;2022-12-20T10:03:30;102175.13;;;12.29;84.43
49065;BME280;34877;27.062;-82.386;2022-12-20T10:13:50;102207.80;;;12.54;84.36
49065;BME280;34877;27.062;-82.386;2022-12-20T10:24:01;102168.93;;;12.55;84.34
49065;BME280;34877;27.062;-82.386;2022-12-20T10:34:07;102176.77;;;12.71;84.47
49065;BME280;34877;27.062;-82.386;2022-12-20T10:44:19;102163.64;;;12.24;84.24
49065;BME280;34877;27.062;-82.386;2022-12-20T10:54:31;102177.50;;;12.31;83.98
49065;BME280;34877;27.062;-82.386;2022-12-20T11:04:36;102175.41;;;12.71;84.04
49065;BME280;34877;27.062;-82.386;2022-12-20T11:14:44;102191.61;;;12.57;85.16
49065;BME280;34877;27.062;-82.386;2022-12-20T11:24:56;102198.97;;;12.05;88.54
49065;BME280;34877;27.062;-82.386;2022-12-20T11:35:12;102197.16;;;12.06;89.55
49065;BME280;34877;27.062;-82.386;2022-12-20T11:45:23;102175.08;;;11.76;91.89
49065;BME280;34877;27.062;-82.386;2022-12-20T11:55:32;102192.90;;;12.38;92.96
49065;BME280;34877;27.062;-82.386;2022-12-20T12:05:42;102194.99;;;12.21;99.69
49065;BME280;34877;27.062;-82.386;2022-12-20T12:15:50;102234.08;;;12.32;100.00
49065;BME280;34877;27.062;-82.386;2022-12-20T12:25:58;102205.45;;;13.03;100.00
49065;BME280;34877;27.062;-82.386;2022-12-20T12:48:26;102244.06;;;12.46;98.79
49065;BME280;34877;27.062;-82.386;2022-12-20T12:58:34;102254.96;;;12.59;99.32
49065;BME280;34877;27.062;-82.386;2022-12-20T13:08:48;102303.73;;;12.16;97.88
49065;BME280;34877;27.062;-82.386;2022-12-20T13:19:33;102297.93;;;12.62;95.61
49065;BME280;34877;27.062;-82.386;2022-12-20T13:29:53;102319.48;;;12.68;96.63
49065;BME280;34877;27.062;-82.386;2022-12-20T13:39:59;102334.90;;;12.16;95.78
49065;BME280;34877;27.062;-82.386;2022-12-20T13:50:23;102360.88;;;12.54;95.88
49065;BME280;34877;27.062;-82.386;2022-12-20T14:00:28;102341.42;;;12.45;94.48
49065;BME280;34877;27.062;-82.386;2022-12-20T14:10:34;102327.37;;;12.91;94.98
49065;BME280;34877;27.062;-82.386;2022-12-20T14:20:37;102340.42;;;12.30;94.99
49065;BME280;34877;27.062;-82.386;2022-12-20T14:30:43;102343.58;;;12.83;94.89
49065;BME280;34877;27.062;-82.386;2022-12-20T14:40:47;102339.30;;;12.28;96.15
49065;BME280;34877;27.062;-82.386;2022-12-20T14:50:53;102312.78;;;12.49;95.69
49065;BME280;34877;27.062;-82.386;2022-12-20T15:01:00;102305.05;;;12.54;96.81
49065;BME280;34877;27.062;-82.386;2022-12-20T15:11:15;102307.27;;;12.55;94.24
49065;BME280;34877;27.062;-82.386;2022-12-20T15:21:28;102305.46;;;12.37;94.50
49065;BME280;34877;27.062;-82.386;2022-12-20T15:31:34;102321.89;;;12.58;95.30
49065;BME280;34877;27.062;-82.386;2022-12-20T15:41:38;102366.81;;;12.59;96.36
49065;BME280;34877;27.062;-82.386;2022-12-20T15:51:43;102326.96;;;12.64;95.60
49065;BME280;34877;27.062;-82.386;2022-12-20T16:01:47;102318.64;;;13.04;94.15
49065;BME280;34877;27.062;-82.386;2022-12-20T16:11:53;102308.42;;;13.47;93.49
49065;BME280;34877;27.062;-82.386;2022-12-20T16:21:57;102322.36;;;13.14;93.49
49065;BME280;34877;27.062;-82.386;2022-12-20T16:32:02;102319.05;;;12.95;93.08
49065;BME280;34877;27.062;-82.386;2022-12-20T16:42:11;102262.36;;;13.32;93.48
49065;BME280;34877;27.062;-82.386;2022-12-20T16:52:18;102236.81;;;13.21;93.62
49065;BME280;34877;27.062;-82.386;2022-12-20T17:02:25;102251.25;;;13.22;92.84
49065;BME280;34877;27.062;-82.386;2022-12-20T17:12:34;102276.14;;;12.84;93.02
49065;BME280;34877;27.062;-82.386;2022-12-20T17:22:36;102242.31;;;13.48;92.90
49065;BME280;34877;27.062;-82.386;2022-12-20T17:32:42;102228.54;;;13.15;92.28
49065;BME280;34877;27.062;-82.386;2022-12-20T17:42:47;102222.55;;;13.09;92.41
49065;BME280;34877;27.062;-82.386;2022-12-20T17:52:52;102208.00;;;13.15;92.35
49065;BME280;34877;27.062;-82.386;2022-12-20T18:02:57;102204.22;;;13.38;93.04
49065;BME280;34877;27.062;-82.386;2022-12-20T18:13:02;102126.51;;;12.86;92.52
49065;BME280;34877;27.062;-82.386;2022-12-20T18:23:07;102177.10;;;12.81;94.07
49065;BME280;34877;27.062;-82.386;2022-12-20T18:33:12;102225.74;;;12.95;92.78
49065;BME280;34877;27.062;-82.386;2022-12-20T18:43:17;102238.60;;;12.91;92.07
49065;BME280;34877;27.062;-82.386;2022-12-20T18:53:22;102219.63;;;12.92;91.88
49065;BME280;34877;27.062;-82.386;2022-12-20T19:03:27;102211.72;;;12.95;92.69
49065;BME280;34877;27.062;-82.386;2022-12-20T19:13:31;102157.60;;;13.06;92.29
49065;BME280;34877;27.062;-82.386;2022-12-20T19:23:38;102249.17;;;13.38;92.39
49065;BME280;34877;27.062;-82.386;2022-12-20T19:33:44;102242.89;;;12.98;93.52
49065;BME280;34877;27.062;-82.386;2022-12-20T19:43:49;102233.15;;;12.60;93.63
49065;BME280;34877;27.062;-82.386;2022-12-20T19:53:53;102239.27;;;12.66;92.99
49065;BME280;34877;27.062;-82.386;2022-12-20T20:03:58;102238.42;;;13.29;91.66
49065;BME280;34877;27.062;-82.386;2022-12-20T20:14:02;102208.34;;;12.62;93.93
49065;BME280;34877;27.062;-82.386;2022-12-20T20:24:07;102229.24;;;13.04;93.09
49065;BME280;34877;27.062;-82.386;2022-12-20T20:34:12;102206.05;;;12.94;92.02
49065;BME280;34877;27.062;-82.386;2022-12-20T20:44:17;102197.21;;;12.74;92.81
49065;BME280;34877;27.062;-82.386;2022-12-20T20:54:22;102155.35;;;13.09;92.93
49065;BME280;34877;27.062;-82.386;2022-12-20T21:04:27;102123.31;;;12.75;92.54
49065;BME280;34877;27.062;-82.386;2022-12-20T21:14:32;102142.48;;;12.61;91.83
49065;BME280;34877;27.062;-82.386;2022-12-20T21:24:37;102114.88;;;12.62;92.64
49065;BME280;34877;27.062;-82.386;2022-12-20T21:34:41;102130.47;;;12.96;91.76
49065;BME280;34877;27.062;-82.386;2022-12-20T21:44:47;102150.32;;;12.86;91.02
49065;BME280;34877;27.062;-82.386;2022-12-20T21:54:52;102169.55;;;12.08;92.77
49065;BME280;34877;27.062;-82.386;2022-12-20T22:04:58;102169.75;;;13.16;91.28
49065;BME280;34877;27.062;-82.386;2022-12-20T22:15:03;102137.16;;;12.67;91.46
49065;BME280;34877;27.062;-82.386;2022-12-20T22:25:08;102145.93;;;13.12;91.50
49065;BME280;34877;27.062;-82.386;2022-12-20T22:35:12;102122.83;;;13.32;91.86
49065;BME280;34877;27.062;-82.386;2022-12-20T22:45:18;102105.28;;;13.07;89.75
49065;BME280;34877;27.062;-82.386;2022-12-20T22:55:22;102126.80;;;13.01;89.76
49065;BME280;34877;27.062;-82.386;2022-12-20T23:05:27;102181.96;;;12.99;90.24
49065;BME280;34877;27.062;-82.386;2022-12-20T23:15:32;102205.10;;;13.38;89.59
49065;BME280;34877;27.062;-82.386;2022-12-20T23:25:38;102191.65;;;13.37;89.28
49065;BME280;34877;27.062;-82.386;2022-12-20T23:35:42;102168.10;;;13.22;88.78
49065;BME280;34877;27.062;-82.386;2022-12-20T23:45:47;102116.17;;;14.01;87.85
49065;BME280;34877;27.062;-82.386;2022-12-20T23:55:58;102086.11;;;13.75;87.42
